Terminal Aerodrome Forecast
Issued by NWS Wilmington, NC

Home | Current Version | Previous Version | Text Only | Print | Product List | Glossary On
Versions: 1 2 3 4 5 6 7 8 9 10 11 12 13 14 15 16 17 18 19 20 21 22 23 24 25
000
FTUS42 KILM 240521
TAFLBT
TAF
KLBT 240521Z 2406/2506 23005KT P6SM OVC008 PROB30 2416/2418 2SM
      TSRA OVC005CB
     FM241800 19010G20KT 4SM SHRA OVC030 PROB30 2418/2424 2SM TS
      OVC005CB
     FM250500 21010KT P6SM BKN008 PROB30 2505/2506 2SM TSRA
      OVC005CB=

USA.gov is the U.S. government's official web portal to all federal, state and local government web resources and services.